Time;durP1;ratioP1;P1;durP2;ratioP2;P2;SDS_P1;SDS_P2;PMS_P1;PMS_P2;Temp;Humidity;BMP_temperature;BMP_pressure;BME280_temperature;BME280_humidity;BME280_pressure;Samples;Min_cycle;Max_cycle;Signal;HPM_P1;HPM_P2
2021/05/11 00:01:33;;;;;;;5.50;3.22;;;13.10;99.90;;;;;;4997025;28;20498;-87
2021/05/11 00:03:59;;;;;;;6.07;2.90;;;13.20;99.90;;;;;;4997382;28;20029;-87
2021/05/11 00:06:24;;;;;;;5.78;3.30;;;13.00;99.90;;;;;;5015139;28;20434;-88
2021/05/11 00:08:50;;;;;;;5.93;3.15;;;13.00;99.90;;;;;;4997241;28;20387;-87
2021/05/11 00:11:16;;;;;;;5.38;2.95;;;13.00;99.90;;;;;;4996693;28;20026;-87
2021/05/11 00:13:41;;;;;;;5.97;3.20;;;13.10;99.90;;;;;;4998454;28;20068;-88
2021/05/11 00:16:07;;;;;;;6.03;3.15;;;13.10;99.90;;;;;;5018246;28;20068;-87
2021/05/11 00:18:33;;;;;;;5.35;3.08;;;12.90;99.90;;;;;;5000629;28;20478;-86
2021/05/11 00:21:00;;;;;;;6.90;3.75;;;12.90;99.90;;;;;;4987419;28;20057;-87
2021/05/11 00:23:26;;;;;;;6.82;3.63;;;12.90;99.90;;;;;;4997147;28;20037;-87
2021/05/11 00:25:52;;;;;;;6.35;3.78;;;12.90;99.90;;;;;;4997870;28;20030;-87
2021/05/11 00:28:18;;;;;;;7.05;3.47;;;12.90;99.90;;;;;;4998061;28;20030;-87
2021/05/11 00:30:43;;;;;;;7.13;3.97;;;12.90;99.90;;;;;;4997591;28;20030;-87
2021/05/11 00:33:09;;;;;;;7.40;4.03;;;12.90;99.90;;;;;;4997089;28;20030;-87
2021/05/11 00:35:35;;;;;;;8.05;4.05;;;12.90;99.90;;;;;;4998461;28;20026;-86
2021/05/11 00:38:00;;;;;;;7.35;4.05;;;12.90;99.90;;;;;;4996659;28;20369;-87
2021/05/11 00:40:26;;;;;;;8.05;3.90;;;12.80;99.90;;;;;;4997024;28;20027;-88
2021/05/11 00:42:52;;;;;;;7.70;4.05;;;12.70;99.90;;;;;;4996775;28;20135;-87
2021/05/11 00:45:17;;;;;;;6.93;3.45;;;12.60;99.90;;;;;;4981009;28;20144;-87
2021/05/11 00:47:43;;;;;;;5.43;2.95;;;12.60;99.90;;;;;;5002262;23;20043;-87
2021/05/11 00:50:09;;;;;;;6.13;3.35;;;12.60;99.90;;;;;;4974503;28;20066;-86
2021/05/11 00:52:36;;;;;;;6.72;3.67;;;12.70;99.90;;;;;;4942635;29;20034;-87
2021/05/11 00:55:03;;;;;;;6.90;3.70;;;12.90;99.90;;;;;;4962899;28;20503;-87
2021/05/11 00:57:30;;;;;;;7.55;3.53;;;12.70;99.90;;;;;;4979294;28;20023;-87
2021/05/11 00:59:59;;;;;;;5.13;3.08;;;12.70;99.90;;;;;;4982136;28;20023;-86
2021/05/11 01:02:24;;;;;;;6.30;3.15;;;12.70;99.90;;;;;;4958785;29;20125;-87
2021/05/11 01:04:50;;;;;;;5.78;3.13;;;12.80;99.90;;;;;;4970989;28;20109;-87
2021/05/11 01:07:15;;;;;;;4.97;2.80;;;12.90;99.90;;;;;;4978526;28;20567;-87
2021/05/11 01:09:41;;;;;;;5.43;2.97;;;12.80;99.90;;;;;;4979361;28;20030;-85
2021/05/11 01:12:07;;;;;;;6.85;4.07;;;12.80;99.90;;;;;;4979328;28;20384;-87
2021/05/11 01:14:33;;;;;;;7.47;3.63;;;12.80;99.90;;;;;;4974064;28;20027;-87
2021/05/11 01:17:00;;;;;;;7.95;3.95;;;12.80;99.90;;;;;;4960645;28;20019;-87
2021/05/11 01:19:38;;;;;;;5.93;3.03;;;12.80;99.90;;;;;;4983840;28;20023;-86
2021/05/11 01:24:42;;;;;;;6.47;3.50;;;12.80;99.90;;;;;;4978243;28;20022;-87
2021/05/11 01:27:21;;;;;;;7.00;4.03;;;13.00;99.90;;;;;;4978853;28;20369;-86
2021/05/11 02:23:07;;;;;;;5.75;3.55;;;12.60;99.90;;;;;;4968480;28;20163;-87
2021/05/11 02:25:32;;;;;;;7.20;3.78;;;12.60;99.90;;;;;;4963249;28;20023;-87
2021/05/11 02:27:58;;;;;;;6.32;3.45;;;12.60;99.90;;;;;;4962644;28;20447;-87
2021/05/11 02:30:24;;;;;;;8.18;4.45;;;12.60;99.90;;;;;;4978366;28;20468;-86
2021/05/11 02:32:50;;;;;;;9.35;4.53;;;12.60;99.90;;;;;;4956626;29;20046;-87
2021/05/11 02:35:18;;;;;;;7.18;3.90;;;12.60;99.90;;;;;;4956459;28;20031;-87
2021/05/11 02:37:45;;;;;;;8.82;4.20;;;12.60;99.90;;;;;;4957176;28;20531;-87
2021/05/11 02:40:13;;;;;;;8.25;4.05;;;12.50;99.90;;;;;;4958968;29;20403;-87
2021/05/11 02:42:40;;;;;;;7.57;3.90;;;12.50;99.90;;;;;;4958439;29;20038;-87
2021/05/11 02:45:11;;;;;;;7.60;3.90;;;12.50;99.90;;;;;;4957248;29;20408;-87
2021/05/11 02:47:49;;;;;;;7.97;4.43;;;12.50;99.90;;;;;;4956632;28;20113;-87
2021/05/11 02:50:16;;;;;;;7.80;3.97;;;12.50;99.90;;;;;;4956116;29;20063;-87
2021/05/11 02:52:42;;;;;;;8.73;4.32;;;12.50;99.90;;;;;;4955516;29;20027;-87
2021/05/11 02:55:08;;;;;;;8.30;4.35;;;12.40;99.90;;;;;;4956220;29;20404;-87
2021/05/11 02:57:34;;;;;;;10.60;4.22;;;12.40;99.90;;;;;;4939949;29;20051;-87
2021/05/11 02:59:59;;;;;;;8.98;4.13;;;12.50;99.90;;;;;;4959199;28;20077;-87
2021/05/11 03:02:28;;;;;;;7.28;3.47;;;12.50;99.90;;;;;;4959467;28;20073;-87
2021/05/11 03:04:54;;;;;;;7.90;3.85;;;12.60;99.90;;;;;;4951616;29;20482;-87
2021/05/11 03:07:19;;;;;;;8.02;3.65;;;12.50;99.90;;;;;;4940834;29;20035;-87
2021/05/11 03:09:45;;;;;;;8.55;3.92;;;12.50;99.90;;;;;;4940744;29;20067;-87
2021/05/11 03:12:11;;;;;;;7.57;3.78;;;12.50;99.90;;;;;;4959243;28;20110;-86
2021/05/11 03:14:36;;;;;;;6.32;3.63;;;12.50;99.90;;;;;;4975500;28;20034;-87
2021/05/11 03:17:02;;;;;;;6.50;3.47;;;12.50;99.90;;;;;;4975646;28;20074;-87
2021/05/11 03:19:27;;;;;;;6.50;2.95;;;12.40;99.90;;;;;;4975406;28;20041;-87
2021/05/11 03:21:53;;;;;;;6.55;3.20;;;12.40;99.90;;;;;;4973825;28;20027;-87
2021/05/11 03:24:18;;;;;;;6.10;3.28;;;12.60;99.90;;;;;;4976136;28;20121;-87
2021/05/11 03:26:44;;;;;;;7.15;3.50;;;12.40;99.90;;;;;;4975023;28;20041;-87
2021/05/11 03:29:10;;;;;;;6.43;3.13;;;12.40;99.90;;;;;;4975736;28;20038;-87
2021/05/11 03:31:35;;;;;;;5.22;2.45;;;12.60;99.90;;;;;;4959682;28;20484;-87
2021/05/11 03:34:01;;;;;;;5.63;2.88;;;12.40;99.90;;;;;;4976300;28;20031;-87
2021/05/11 03:36:26;;;;;;;5.82;2.90;;;12.40;99.90;;;;;;4959141;28;20098;-87
2021/05/11 03:38:54;;;;;;;7.10;3.03;;;12.40;99.90;;;;;;4956262;29;20031;-88
2021/05/11 03:41:24;;;;;;;6.38;3.17;;;12.50;99.90;;;;;;4939974;29;20031;-87
2021/05/11 03:44:13;;;;;;;7.07;3.30;;;12.40;99.90;;;;;;4957441;29;20070;-86
2021/05/11 03:46:37;;;;;;;8.63;4.13;;;12.30;99.90;;;;;;4957132;28;20046;-87
2021/05/11 03:49:04;;;;;;;7.13;3.47;;;12.40;99.90;;;;;;4958516;28;20092;-87
2021/05/11 03:51:31;;;;;;;7.90;4.18;;;12.30;99.90;;;;;;4958955;28;20026;-87
2021/05/11 03:53:58;;;;;;;8.25;3.83;;;12.30;99.90;;;;;;4958964;28;20027;-87
2021/05/11 03:56:25;;;;;;;8.70;4.03;;;12.40;99.90;;;;;;4958350;28;20027;-86
2021/05/11 03:58:52;;;;;;;10.55;4.15;;;12.40;99.90;;;;;;4958472;28;20046;-87
2021/05/11 04:01:17;;;;;;;9.63;4.82;;;12.30;99.90;;;;;;4958626;28;20042;-86
2021/05/11 04:03:43;;;;;;;10.75;5.00;;;12.40;99.90;;;;;;4975560;28;20035;-86
2021/05/11 04:06:09;;;;;;;12.13;5.47;;;12.40;99.90;;;;;;4962683;28;20182;-86
2021/05/11 04:09:24;;;;;;;13.02;6.32;;;12.40;99.90;;;;;;4939245;29;20031;-87
2021/05/11 04:16:38;;;;;;;10.20;5.50;;;12.30;99.90;;;;;;4976635;28;20022;-87
2021/05/11 04:19:03;;;;;;;13.75;6.32;;;12.30;99.90;;;;;;4974741;28;20078;-86
2021/05/11 04:21:29;;;;;;;12.48;5.78;;;12.30;99.90;;;;;;4975008;28;20027;-87
2021/05/11 04:23:55;;;;;;;10.55;5.82;;;12.40;99.90;;;;;;4974766;28;20062;-86
2021/05/11 04:26:22;;;;;;;13.10;6.60;;;12.40;99.90;;;;;;4975221;28;20030;-86
2021/05/11 04:28:49;;;;;;;12.23;6.35;;;12.40;99.90;;;;;;4975731;28;20022;-87
2021/05/11 04:31:16;;;;;;;11.90;6.25;;;12.50;99.90;;;;;;4957916;28;20031;-86
2021/05/11 04:33:42;;;;;;;11.90;6.20;;;12.50;99.90;;;;;;4975397;28;20114;-87
2021/05/11 04:36:08;;;;;;;12.95;6.05;;;12.40;99.90;;;;;;4958704;28;20059;-86
2021/05/11 04:38:34;;;;;;;11.07;5.90;;;12.50;99.90;;;;;;4958454;28;20117;-87
2021/05/11 04:40:59;;;;;;;13.43;6.32;;;12.50;99.90;;;;;;4958971;28;20022;-87
2021/05/11 04:43:27;;;;;;;11.85;6.22;;;12.60;99.90;;;;;;4958154;28;20372;-86
2021/05/11 04:46:06;;;;;;;14.25;6.60;;;12.60;99.90;;;;;;4974655;28;20027;-85
2021/05/11 04:48:32;;;;;;;13.93;5.97;;;12.60;99.90;;;;;;4954411;28;20126;-87
2021/05/11 04:50:58;;;;;;;14.05;6.82;;;12.60;99.90;;;;;;4955003;28;20026;-87
2021/05/11 04:53:24;;;;;;;13.05;6.63;;;12.60;99.90;;;;;;4954558;28;20046;-87
2021/05/11 04:55:50;;;;;;;14.60;6.72;;;12.60;99.90;;;;;;4954274;28;20023;-86
2021/05/11 04:58:15;;;;;;;13.68;6.32;;;12.70;99.90;;;;;;4949824;28;20138;-87
2021/05/11 05:00:41;;;;;;;13.23;6.50;;;12.60;99.90;;;;;;4958090;28;20053;-86
2021/05/11 05:03:10;;;;;;;12.52;6.28;;;12.60;99.90;;;;;;4950206;28;20397;-86
2021/05/11 05:05:35;;;;;;;15.70;7.38;;;12.60;99.90;;;;;;4938832;29;20027;-87
2021/05/11 05:08:01;;;;;;;13.93;6.57;;;12.60;99.90;;;;;;4956233;28;20496;-87
2021/05/11 05:10:27;;;;;;;14.60;6.55;;;12.50;99.90;;;;;;4959142;28;20019;-88
2021/05/11 05:12:52;;;;;;;13.80;6.88;;;12.50;99.90;;;;;;4973976;28;20027;-87
2021/05/11 05:15:18;;;;;;;14.27;6.50;;;12.70;99.90;;;;;;4975631;28;20030;-88
2021/05/11 05:17:44;;;;;;;14.07;6.78;;;12.60;99.90;;;;;;4958132;28;20114;-86
2021/05/11 05:20:10;;;;;;;14.82;6.75;;;12.60;99.90;;;;;;4957886;28;20019;-87
2021/05/11 05:22:37;;;;;;;13.15;6.28;;;12.70;99.90;;;;;;4974760;28;20097;-87
2021/05/11 05:25:19;;;;;;;14.43;6.47;;;12.70;99.90;;;;;;4957909;28;20031;-87
2021/05/11 05:30:12;;;;;;;13.75;6.63;;;12.70;99.90;;;;;;4974586;28;20054;-87
2021/05/11 05:32:38;;;;;;;12.77;5.93;;;12.70;99.90;;;;;;4969728;28;20730;-86
2021/05/11 05:35:04;;;;;;;12.60;6.05;;;12.60;99.90;;;;;;4975031;28;20041;-88
2021/05/11 05:37:30;;;;;;;13.02;5.68;;;12.70;99.90;;;;;;4957624;28;20019;-86
2021/05/11 05:39:58;;;;;;;12.48;5.97;;;12.70;99.90;;;;;;4971870;28;20033;-87
2021/05/11 05:42:24;;;;;;;13.25;5.68;;;12.70;99.90;;;;;;4974135;28;20030;-86
2021/05/11 05:44:50;;;;;;;11.68;5.82;;;12.70;99.90;;;;;;4953066;28;20381;-87
2021/05/11 05:47:17;;;;;;;11.35;5.20;;;12.70;99.90;;;;;;4976750;28;20030;-87
2021/05/11 05:49:47;;;;;;;12.38;5.88;;;12.70;99.90;;;;;;4980450;28;20089;-88
2021/05/11 05:52:21;;;;;;;11.85;5.70;;;12.80;99.90;;;;;;4973476;28;20026;-87
2021/05/11 05:54:48;;;;;;;10.82;5.97;;;12.70;99.90;;;;;;4972603;28;20029;-88
2021/05/11 05:57:14;;;;;;;14.23;6.72;;;13.00;99.90;;;;;;4974182;28;20071;-87
2021/05/11 05:59:41;;;;;;;10.27;5.53;;;12.70;99.90;;;;;;4977851;28;20019;-87
2021/05/11 06:02:11;;;;;;;10.45;5.40;;;12.80;99.90;;;;;;4953104;28;20043;-86
2021/05/11 06:04:38;;;;;;;10.80;5.57;;;12.90;99.90;;;;;;4971928;28;20034;-87
2021/05/11 06:07:04;;;;;;;11.88;6.38;;;12.90;99.90;;;;;;4965985;28;20037;-87
2021/05/11 06:09:30;;;;;;;9.98;5.97;;;12.90;99.90;;;;;;4966424;28;20030;-87
2021/05/11 06:12:00;;;;;;;11.82;5.95;;;12.90;99.90;;;;;;4972264;28;20037;-86
2021/05/11 06:17:29;;;;;;;10.07;5.47;;;12.90;99.90;;;;;;4909431;29;20152;-87
2021/05/11 06:19:55;;;;;;;11.57;6.15;;;13.00;99.90;;;;;;4940983;28;20051;-86
2021/05/11 06:22:21;;;;;;;10.30;5.38;;;13.10;99.90;;;;;;4968996;28;20023;-87
2021/05/11 06:24:47;;;;;;;11.30;5.57;;;13.00;99.90;;;;;;4950807;28;20061;-85
2021/05/11 06:27:14;;;;;;;11.32;5.88;;;13.10;99.90;;;;;;4969629;28;20065;-86
2021/05/11 06:29:44;;;;;;;11.82;6.28;;;13.10;99.90;;;;;;4968830;28;20027;-86
2021/05/11 06:32:10;;;;;;;11.30;5.65;;;13.10;99.90;;;;;;4970505;28;20023;-87
2021/05/11 06:34:39;;;;;;;12.18;7.07;;;13.20;99.90;;;;;;4966805;28;20145;-87
2021/05/11 06:37:05;;;;;;;10.77;6.03;;;13.20;99.90;;;;;;4955514;28;20114;-86
2021/05/11 06:39:31;;;;;;;11.35;5.55;;;13.20;99.90;;;;;;4953300;28;20114;-87
2021/05/11 06:41:58;;;;;;;12.05;5.97;;;13.20;99.90;;;;;;4952171;28;20451;-87
2021/05/11 06:44:59;;;;;;;9.15;5.50;;;13.20;99.90;;;;;;4966957;28;20404;-87
2021/05/11 06:52:41;;;;;;;9.52;5.10;;;13.20;99.90;;;;;;4968488;28;20404;-86
2021/05/11 06:53:13;;;;;;;10.43;5.18;;;13.30;99.90;;;;;;4963272;28;20050;-86
2021/05/11 06:55:45;;;;;;;12.35;6.35;;;13.20;99.90;;;;;;4971062;28;20106;-86
2021/05/11 06:58:11;;;;;;;10.40;5.85;;;13.30;99.90;;;;;;4969891;28;20027;-87
2021/05/11 07:00:42;;;;;;;9.85;5.63;;;13.40;99.90;;;;;;4954747;28;20027;-87
2021/05/11 07:03:09;;;;;;;10.30;5.90;;;13.40;99.90;;;;;;4968880;28;20031;-85
2021/05/11 07:05:36;;;;;;;12.20;6.55;;;13.30;99.90;;;;;;4966740;28;20039;-87
2021/05/11 07:08:10;;;;;;;11.23;6.03;;;13.40;99.90;;;;;;4969386;28;20081;-87
2021/05/11 07:10:37;;;;;;;11.52;5.95;;;13.50;99.90;;;;;;4967296;28;20038;-87
2021/05/11 07:13:08;;;;;;;12.88;7.25;;;13.50;99.90;;;;;;4998537;23;20103;-91
2021/05/11 07:15:34;;;;;;;9.27;5.95;;;13.40;99.90;;;;;;4984476;28;20103;-91
2021/05/11 07:18:14;;;;;;;9.70;5.70;;;13.50;99.90;;;;;;4990963;28;20511;-89
2021/05/11 07:20:45;;;;;;;13.25;6.70;;;13.50;99.90;;;;;;4990899;28;20026;-90
2021/05/11 07:23:21;;;;;;;10.80;6.47;;;13.50;99.90;;;;;;4973472;28;20764;-89
2021/05/11 07:30:58;;;;;;;9.60;5.45;;;13.70;99.90;;;;;;5005334;28;20034;-91
2021/05/11 07:33:28;;;;;;;10.20;5.72;;;13.70;99.90;;;;;;5000537;28;20026;-91
2021/05/11 07:35:53;;;;;;;9.00;5.43;;;13.70;99.90;;;;;;4994130;28;20121;-91
2021/05/11 07:43:32;;;;;;;11.27;6.20;;;13.70;99.90;;;;;;4334555;22;20049;-92
2021/05/11 08:04:41;;;;;;;8.90;5.15;;;14.10;99.90;;;;;;5013679;28;20019;-92
2021/05/11 08:15:22;;;;;;;7.88;4.90;;;14.10;99.90;;;;;;5012891;28;20052;-92
2021/05/11 08:18:07;;;;;;;8.40;3.88;;;14.20;99.90;;;;;;5002196;28;20015;-92
2021/05/11 08:28:48;;;;;;;8.35;4.20;;;14.40;99.90;;;;;;5023313;28;20052;-91
2021/05/11 08:31:22;;;;;;;6.18;3.50;;;14.40;99.90;;;;;;5015935;28;20038;-91
2021/05/11 08:33:48;;;;;;;7.30;4.00;;;14.50;99.90;;;;;;5015812;28;20037;-93
2021/05/11 08:36:14;;;;;;;6.95;4.18;;;14.60;99.90;;;;;;5005353;28;20025;-92
2021/05/11 08:38:40;;;;;;;7.82;4.10;;;14.60;99.90;;;;;;5010345;28;20052;-91
2021/05/11 08:41:05;;;;;;;8.65;4.55;;;14.70;99.90;;;;;;5003436;28;20026;-92
2021/05/11 08:43:33;;;;;;;8.45;4.80;;;14.90;99.90;;;;;;4992735;28;20197;-92
2021/05/11 08:46:05;;;;;;;6.63;4.05;;;14.90;99.90;;;;;;4991359;28;20034;-93
2021/05/11 08:48:31;;;;;;;7.25;3.58;;;15.00;99.90;;;;;;4994002;28;20041;-92
2021/05/11 09:04:51;;;;;;;7.05;3.75;;;15.30;99.90;;;;;;5029452;28;20026;-93
2021/05/11 09:54:38;;;;;;;4.28;2.10;;;15.80;99.90;;;;;;5026422;23;20046;-90
2021/05/11 10:41:10;;;;;;;5.45;3.13;;;16.50;99.90;;;;;;5014018;28;20029;-90
2021/05/11 10:47:00;;;;;;;5.50;3.10;;;16.70;99.90;;;;;;5013009;28;20033;-91
2021/05/11 10:49:20;;;;;;;7.28;3.95;;;16.80;99.90;;;;;;5001863;28;20038;-91
2021/05/11 10:52:01;;;;;;;6.85;3.85;;;16.90;99.90;;;;;;4995721;28;20030;-90
2021/05/11 10:54:39;;;;;;;9.18;4.13;;;16.90;99.90;;;;;;4995960;28;20038;-91
2021/05/11 11:00:44;;;;;;;7.15;3.63;;;16.90;99.90;;;;;;5013497;28;20045;-90
2021/05/11 11:03:28;;;;;;;7.57;4.20;;;17.10;99.90;;;;;;4976707;28;20095;-90
2021/05/11 11:05:57;;;;;;;7.53;4.32;;;17.10;99.90;;;;;;4995971;28;20029;-91
2021/05/11 11:08:41;;;;;;;8.13;4.68;;;17.20;99.90;;;;;;4996020;28;20030;-91
2021/05/11 11:11:22;;;;;;;8.27;5.00;;;17.30;99.90;;;;;;4995653;28;20486;-91
2021/05/11 11:13:54;;;;;;;8.98;5.50;;;16.90;99.90;;;;;;4995782;28;20029;-91
2021/05/11 11:16:37;;;;;;;;;;;17.00;99.90;;;;;;4996418;28;20026;-91
2021/05/11 11:19:17;;;;;;;10.43;5.53;;;17.10;99.90;;;;;;4996115;28;19905;-91
2021/05/11 11:25:03;;;;;;;9.65;5.60;;;17.60;99.90;;;;;;5013731;28;20141;-91
2021/05/11 11:27:33;;;;;;;10.80;5.75;;;17.70;99.90;;;;;;4995866;28;20513;-91
2021/05/11 11:30:08;;;;;;;10.18;5.63;;;17.70;99.90;;;;;;4995649;28;20034;-93
2021/05/11 11:32:48;;;;;;;10.07;5.68;;;17.80;99.90;;;;;;4996163;28;20609;-91
2021/05/11 11:35:21;;;;;;;10.52;6.00;;;17.80;99.90;;;;;;4997420;28;20112;-91
2021/05/11 11:37:56;;;;;;;8.80;5.07;;;17.80;99.90;;;;;;4996729;28;20022;-91
2021/05/11 11:40:37;;;;;;;9.20;5.43;;;17.80;99.90;;;;;;4997354;28;20026;-91
2021/05/11 11:43:10;;;;;;;9.55;5.65;;;18.00;99.90;;;;;;4996785;28;20387;-92
2021/05/11 11:45:39;;;;;;;9.30;4.90;;;17.80;99.90;;;;;;4997058;28;20026;-91
2021/05/11 11:48:10;;;;;;;9.23;5.65;;;17.70;99.90;;;;;;5002945;28;20482;-90
2021/05/11 11:50:38;;;;;;;9.23;5.40;;;17.60;99.90;;;;;;5002274;28;20429;-91
2021/05/11 11:53:37;;;;;;;7.90;5.28;;;17.50;99.90;;;;;;4996920;28;20757;-91
2021/05/11 11:59:14;;;;;;;5.80;4.07;;;17.90;99.90;;;;;;4970270;28;20031;-90
2021/05/11 12:01:59;;;;;;;7.20;4.18;;;18.20;99.90;;;;;;4996666;28;20435;-91
2021/05/11 12:04:27;;;;;;;6.72;4.30;;;18.10;99.90;;;;;;4997780;28;20026;-90
2021/05/11 12:07:08;;;;;;;7.55;4.47;;;18.30;99.90;;;;;;4997074;28;20084;-91
2021/05/11 12:09:41;;;;;;;6.28;3.67;;;18.30;99.90;;;;;;5007694;28;20029;-90
2021/05/11 12:12:34;;;;;;;5.82;3.67;;;18.20;99.90;;;;;;5016588;28;20053;-91
2021/05/11 12:15:20;;;;;;;5.47;3.75;;;18.20;99.90;;;;;;5000844;28;20025;-90
2021/05/11 12:18:26;;;;;;;5.65;3.35;;;18.10;99.90;;;;;;5006460;28;20050;-90
2021/05/11 12:21:07;;;;;;;6.90;3.72;;;18.10;99.90;;;;;;5011853;28;20036;-90
2021/05/11 12:24:05;;;;;;;5.45;3.33;;;18.10;99.90;;;;;;5011473;28;20073;-90
2021/05/11 12:26:32;;;;;;;4.88;3.10;;;18.20;99.90;;;;;;4999771;28;20057;-90
2021/05/11 12:29:16;;;;;;;4.82;2.80;;;18.20;99.90;;;;;;5009847;28;20033;-90
2021/05/11 12:31:50;;;;;;;4.72;2.85;;;18.20;99.90;;;;;;5020530;28;20401;-92
2021/05/11 12:34:27;;;;;;;3.90;2.58;;;18.30;99.90;;;;;;5020836;28;20474;-90
2021/05/11 12:36:59;;;;;;;4.07;1.77;;;18.20;99.90;;;;;;5019632;28;20030;-92
2021/05/11 12:42:46;;;;;;;2.03;1.10;;;18.40;99.90;;;;;;5022840;28;20036;-92
2021/05/11 12:45:17;;;;;;;3.33;1.70;;;18.40;99.90;;;;;;5013951;28;20022;-91
2021/05/11 12:48:00;;;;;;;2.60;1.20;;;18.40;99.90;;;;;;5002552;28;20492;-92
2021/05/11 12:50:34;;;;;;;2.42;1.00;;;18.60;99.90;;;;;;4998909;28;20029;-92
2021/05/11 12:56:21;;;;;;;3.20;1.35;;;18.90;99.90;;;;;;5016056;28;20045;-91
2021/05/11 12:59:10;;;;;;;2.70;1.38;;;18.80;99.90;;;;;;4998821;28;20037;-93
2021/05/11 13:35:34;;;;;;;4.15;1.83;;;16.70;99.90;;;;;;5015828;28;20041;-90
2021/05/11 13:38:00;;;;;;;3.60;2.00;;;16.60;99.90;;;;;;4997699;28;20368;-91
2021/05/11 13:40:28;;;;;;;3.17;1.85;;;16.50;99.90;;;;;;4997609;28;20029;-90
2021/05/11 13:42:54;;;;;;;3.33;1.80;;;16.50;99.90;;;;;;4998191;28;20045;-89
2021/05/11 13:45:20;;;;;;;3.10;1.90;;;16.30;99.90;;;;;;4997751;28;20640;-91
2021/05/11 13:50:31;;;;;;;4.60;2.20;;;16.20;99.90;;;;;;5015308;28;20383;-91
2021/05/11 13:52:57;;;;;;;3.97;2.38;;;16.20;99.90;;;;;;4982500;28;20443;-91
2021/05/11 13:55:32;;;;;;;4.70;2.90;;;16.20;99.90;;;;;;4997666;28;20522;-88
2021/05/11 14:03:49;;;;;;;5.75;4.00;;;15.90;99.90;;;;;;5015473;28;20553;-89
2021/05/11 14:06:14;;;;;;;4.88;3.30;;;15.90;99.90;;;;;;4997086;28;20022;-89
2021/05/11 14:08:58;;;;;;;5.63;3.13;;;15.80;99.90;;;;;;4997549;28;20360;-91
2021/05/11 14:11:53;;;;;;;4.85;3.42;;;15.60;99.90;;;;;;5015179;28;20026;-89
2021/05/11 14:14:20;;;;;;;5.63;3.25;;;15.60;99.90;;;;;;4997831;28;20029;-89
2021/05/11 14:16:47;;;;;;;4.38;2.78;;;15.40;99.90;;;;;;4996930;28;20038;-91
2021/05/11 14:19:18;;;;;;;5.78;3.45;;;15.30;99.90;;;;;;4996974;28;20116;-89
2021/05/11 14:21:45;;;;;;;4.95;3.00;;;15.40;99.90;;;;;;4997462;28;20026;-89
2021/05/11 14:24:50;;;;;;;7.10;3.20;;;15.20;99.90;;;;;;4997314;28;20121;-93
2021/05/11 14:27:17;;;;;;;5.53;2.88;;;15.10;99.90;;;;;;4998025;28;20054;-92
2021/05/11 14:29:45;;;;;;;4.10;2.47;;;14.90;99.90;;;;;;4997598;28;20025;-93
2021/05/11 14:32:12;;;;;;;5.20;2.42;;;14.90;99.90;;;;;;4995022;28;20053;-92
2021/05/11 14:34:46;;;;;;;6.07;2.92;;;14.80;99.90;;;;;;4996286;28;20475;-91
2021/05/11 14:37:35;;;;;;;4.35;2.47;;;14.80;99.90;;;;;;4996285;28;20029;-92
2021/05/11 14:40:09;;;;;;;5.15;2.45;;;14.60;99.90;;;;;;4996500;28;20033;-91
2021/05/11 14:42:39;;;;;;;5.72;2.53;;;14.50;99.90;;;;;;4996655;28;20033;-90
2021/05/11 14:45:08;;;;;;;4.10;2.38;;;14.60;99.90;;;;;;4996624;28;20037;-91
2021/05/11 14:47:36;;;;;;;5.43;2.30;;;14.60;99.90;;;;;;4997270;28;20148;-91
2021/05/11 14:50:04;;;;;;;3.63;2.00;;;14.60;99.90;;;;;;4996314;28;20034;-91
2021/05/11 14:52:39;;;;;;;5.05;2.00;;;14.60;99.90;;;;;;4995948;28;20045;-92
2021/05/11 14:55:33;;;;;;;4.13;1.98;;;14.60;99.90;;;;;;4996195;28;20046;-92
2021/05/11 14:58:01;;;;;;;4.60;2.00;;;14.60;99.90;;;;;;4996521;28;20510;-91
2021/05/11 15:00:33;;;;;;;4.15;2.03;;;14.60;99.90;;;;;;4997003;28;20085;-91
2021/05/11 15:03:05;;;;;;;;;;;14.50;99.90;;;;;;4992889;28;20026;-90
2021/05/11 15:05:33;;;;;;;;;;;14.50;99.90;;;;;;4997069;28;19906;-92
2021/05/11 15:08:13;;;;;;;3.42;1.55;;;14.40;99.90;;;;;;4996135;28;19905;-91
2021/05/11 15:10:40;;;;;;;3.20;1.60;;;14.30;99.90;;;;;;4995377;28;20123;-89
2021/05/11 15:13:07;;;;;;;3.28;1.52;;;14.30;99.90;;;;;;4992307;28;20446;-91
2021/05/11 15:16:31;;;;;;;4.18;1.50;;;14.20;99.90;;;;;;4996480;28;20121;-93
2021/05/11 15:19:16;;;;;;;3.03;1.23;;;14.10;99.90;;;;;;4997637;28;20037;-92
2021/05/11 15:21:47;;;;;;;3.78;1.90;;;14.10;99.90;;;;;;4996292;28;20490;-91
2021/05/11 15:24:28;;;;;;;2.70;1.13;;;14.00;99.90;;;;;;4996301;28;20022;-92
2021/05/11 15:34:28;;;;;;;3.03;1.13;;;13.70;99.90;;;;;;4954058;29;20058;-92
2021/05/11 15:37:53;;;;;;;4.25;1.45;;;13.70;99.90;;;;;;4921826;29;20043;-94
2021/05/11 16:03:38;;;;;;;2.50;0.63;;;13.50;99.90;;;;;;4956333;28;20071;-91
2021/05/11 16:09:46;;;;;;;;;;;13.40;99.90;;;;;;4953513;28;20035;-94
2021/05/11 16:12:26;;;;;;;2.85;0.80;;;13.40;99.90;;;;;;4953692;28;19916;-92
2021/05/11 16:15:58;;;;;;;1.67;0.63;;;13.40;99.90;;;;;;4957554;28;20046;-92
2021/05/11 16:18:33;;;;;;;;;;;;;;;;;;;;;
2021/05/11 16:21:21;;;;;;;1.58;0.50;;;13.50;99.90;;;;;;4944910;28;20231;-93
2021/05/11 16:23:50;;;;;;;1.02;0.40;;;13.50;99.90;;;;;;4997177;23;20057;-93
2021/05/11 16:26:20;;;;;;;2.05;0.47;;;13.50;99.90;;;;;;4974337;28;20034;-94
2021/05/11 16:28:46;;;;;;;1.63;0.40;;;13.50;99.90;;;;;;4989938;28;20307;-93
2021/05/11 16:31:12;;;;;;;1.55;0.50;;;13.50;99.90;;;;;;4971564;28;20026;-93
2021/05/11 16:38:46;;;;;;;1.35;0.43;;;13.50;99.90;;;;;;4987978;28;20046;-93
2021/05/11 16:41:12;;;;;;;1.20;0.40;;;13.40;99.90;;;;;;4986823;28;20034;-91
2021/05/11 16:43:38;;;;;;;1.45;0.30;;;13.40;99.90;;;;;;4971796;28;20043;-91
2021/05/11 16:46:06;;;;;;;0.95;0.30;;;13.40;99.90;;;;;;4974234;28;20067;-92
2021/05/11 16:48:33;;;;;;;1.20;0.40;;;13.20;99.90;;;;;;4977757;28;20030;-91
2021/05/11 16:51:00;;;;;;;0.52;0.20;;;13.20;99.90;;;;;;4967663;28;20153;-93
2021/05/11 16:53:26;;;;;;;0.98;0.22;;;13.20;99.90;;;;;;4962285;28;20483;-92
2021/05/11 16:55:52;;;;;;;0.30;0.10;;;13.30;99.90;;;;;;4961660;28;20364;-91
2021/05/11 16:58:17;;;;;;;1.63;0.30;;;13.20;99.90;;;;;;4981010;28;20023;-91
2021/05/11 17:00:44;;;;;;;0.82;0.30;;;13.20;99.90;;;;;;4968544;28;20029;-91
2021/05/11 17:03:10;;;;;;;1.70;0.30;;;13.30;99.90;;;;;;4975026;28;20051;-91
2021/05/11 17:05:37;;;;;;;2.42;0.50;;;13.30;99.90;;;;;;4963060;28;20040;-91
2021/05/11 17:08:04;;;;;;;0.75;0.32;;;13.30;99.90;;;;;;4954242;29;20056;-91
2021/05/11 17:10:33;;;;;;;1.75;0.55;;;13.30;99.90;;;;;;4964912;28;20119;-91
2021/05/11 17:13:02;;;;;;;1.40;0.40;;;13.30;99.90;;;;;;4974609;28;20022;-91
2021/05/11 17:15:30;;;;;;;0.88;0.40;;;13.20;99.90;;;;;;4972878;28;20023;-89
2021/05/11 17:17:58;;;;;;;1.23;0.32;;;13.30;99.90;;;;;;4979965;28;20106;-89
2021/05/11 17:20:28;;;;;;;2.78;0.52;;;13.30;99.90;;;;;;4969356;28;20023;-91
2021/05/11 17:22:55;;;;;;;2.28;0.60;;;13.40;99.90;;;;;;4971772;28;20027;-91
2021/05/11 17:25:22;;;;;;;1.45;0.30;;;13.50;99.90;;;;;;4978016;28;20082;-93
2021/05/11 17:28:24;;;;;;;1.05;0.30;;;13.50;99.90;;;;;;4989414;28;20015;-96
2021/05/11 17:46:19;;;;;;;0.68;0.30;;;12.80;99.90;;;;;;5029490;28;20049;-93
2021/05/11 17:48:47;;;;;;;1.05;0.40;;;12.80;99.90;;;;;;5000738;28;20033;-94
2021/05/11 17:51:16;;;;;;;2.90;0.65;;;12.70;99.90;;;;;;5016290;28;20347;-93
2021/05/11 17:53:44;;;;;;;1.10;0.43;;;12.70;99.90;;;;;;5011469;28;20402;-93
2021/05/11 17:56:10;;;;;;;0.80;0.32;;;12.70;99.90;;;;;;5014108;28;20033;-95
2021/05/11 17:58:36;;;;;;;1.98;0.40;;;12.70;99.90;;;;;;5020081;28;20022;-93
2021/05/11 18:01:02;;;;;;;1.35;0.35;;;12.70;99.90;;;;;;5023110;28;20341;-93
2021/05/11 18:03:32;;;;;;;0.93;0.40;;;12.70;99.90;;;;;;5011291;28;20022;-93
2021/05/11 18:06:01;;;;;;;1.23;0.50;;;12.70;99.90;;;;;;5010597;28;20030;-94
2021/05/11 18:08:31;;;;;;;1.90;0.70;;;12.80;99.90;;;;;;5012579;28;20025;-93
2021/05/11 18:10:59;;;;;;;2.70;0.80;;;12.80;99.90;;;;;;5020152;28;20036;-94
2021/05/11 18:13:32;;;;;;;1.65;0.75;;;12.80;99.90;;;;;;5017404;28;20026;-94
2021/05/11 18:16:06;;;;;;;2.97;0.70;;;12.80;99.90;;;;;;5015765;28;20037;-96
2021/05/11 18:28:53;;;;;;;1.85;0.80;;;12.60;99.90;;;;;;2294180;22;20054;-92
2021/05/11 18:31:22;;;;;;;2.38;0.82;;;12.50;99.90;;;;;;4986538;28;20026;-89
2021/05/11 18:33:47;;;;;;;1.77;0.73;;;12.40;99.90;;;;;;4989383;28;20034;-91
2021/05/11 18:36:27;;;;;;;1.92;0.90;;;12.40;99.90;;;;;;4986436;28;20118;-91
2021/05/11 18:38:58;;;;;;;1.63;0.73;;;12.40;99.90;;;;;;4997648;28;20027;-94
2021/05/11 18:41:24;;;;;;;2.00;0.80;;;12.40;99.90;;;;;;5007541;28;20030;-90
2021/05/11 18:43:51;;;;;;;2.45;1.10;;;12.30;99.90;;;;;;5011650;28;20052;-93
2021/05/11 18:46:17;;;;;;;1.88;0.60;;;12.30;99.90;;;;;;4999470;28;21196;-93
2021/05/11 18:48:44;;;;;;;1.58;0.80;;;12.30;99.90;;;;;;5004622;28;20045;-93
2021/05/11 18:51:11;;;;;;;1.50;0.60;;;12.20;99.90;;;;;;5001758;28;20010;-94